Sunday, December 17, 2017, 10:13 PM EST
Back to Local

KDSV, Dansville Municipal Airport

Location: Dansville, NY, United States Lat: 42.567
Local Time: 10:13 PM EST ( 3:13 GMT) Lon: -77.717
Time Zone: US/Eastern Elev: 662 ft

Show me the last for .
Show Coded

Time T Td Feel RH Dir Speed Gust Alt SLP Vis Weather Sky Remarks
2017-12-17 21:54 22 17 17 81 160° 3 - 30.09 30.14 10 CLR 6-hr Precip Total (10pm): 0.00"
2017-12-17 20:54 23 17 18 77 330° 3 - 30.14 30.19 10 FEW120 None
2017-12-17 19:54 23 18 - 80 - Calm - 30.14 30.20 10 OVC100 1-hr Precip Total: Trace
2017-12-17 18:54 24 19 - 80 - Calm - 30.15 30.21 7 -SN OVC047 1-hr Precip Total: Trace
6-hr Precip Total (7pm): 0.00"
6-hr Min Temp (7pm): 21.9°F
6-hr Max Temp (7pm): 25.0°F
2017-12-17 17:54 23 18 - 80 - Calm - 30.17 30.23 10 OVC100 None
2017-12-17 16:54 24 17 - 74 - Calm - 30.19 30.25 10 CLR None
2017-12-17 15:54 23 16 - 74 - Calm - 30.19 30.25 10 CLR None
2017-12-17 14:54 23 16 - 74 - Calm - 30.18 30.24 10 CLR None
2017-12-17 13:54 23 16 17 74 320° 5 - 30.20 30.26 10 FEW019 BKN050 None
2017-12-17 13:36 24 16 20 70 310° 3 - 30.21 - 10 SCT019 OVC050 None
2017-12-17 12:54 24 16 - 70 - Calm - 30.22 30.27 10 BKN019 OVC050 6-hr Min Temp (1pm): 19.9°F
6-hr Max Temp (1pm): 24.1°F
2017-12-17 11:54 22 14 - 71 - Calm - 30.24 30.30 10 OVC019 None
2017-12-17 10:54 21 14 16 73 320° 3 - 30.29 30.35 10 OVC016 None
2017-12-17 09:54 21 14 - 73 - Calm - 30.29 30.34 10 OVC016 None
2017-12-17 08:54 20 14 - 77 - Calm - 30.28 30.34 10 OVC017 None
2017-12-17 07:54 20 13 - 73 - Calm - 30.27 30.33 10 OVC019 None
2017-12-17 06:54 20 13 13 73 340° 5 - 30.27 30.33 10 OVC020 6-hr Min Temp (7am): 19.9°F
6-hr Max Temp (7am): 21.9°F
2017-12-17 05:54 21 15 - 77 - Calm - 30.25 30.30 10 OVC021 None
2017-12-17 04:54 21 16 - 80 - Calm - 30.23 30.28 10 OVC021 None
2017-12-17 03:54 22 17 - 81 - Calm - 30.24 30.30 10 OVC020 None
2017-12-17 02:54 21 18 - 87 - Calm - 30.25 30.30 10 OVC022 None
2017-12-17 01:54 22 18 - 84 - Calm - 30.21 30.26 10 OVC024 None
2017-12-17 00:54 22 18 - 84 - Calm - 30.20 30.26 10 OVC023 6-hr Min Temp (1am): 21.0°F
6-hr Max Temp (1am): 23.0°F
2017-12-16 23:54 22 18 - 84 - Calm - 30.20 30.26 10 OVC023 24-hr Min Temp (12am): 21.0°F
24-hr Max Temp (12am): 26.1°F
2017-12-16 22:54 22 17 - 81 - Calm - 30.19 30.25 10 OVC021 None

Support USWX by starting your Amazon purchase here.